Time;durP1;ratioP1;P1;durP2;ratioP2;P2;SDS_P1;SDS_P2;PMS_P1;PMS_P2;Temp;Humidity;BMP_temperature;BMP_pressure;BME280_temperature;BME280_humidity;BME280_pressure;Samples;Min_cycle;Max_cycle;Signal;HPM_P1;HPM_P2
2024/03/29 00:01:16;;;;;;;21.98;10.82;;;;;;;;;;5035334;28;20404;-72
2024/03/29 00:03:42;;;;;;;19.50;10.70;;;;;;;;;;5035262;28;20064;-71
2024/03/29 00:06:07;;;;;;;21.73;11.57;;;;;;;;;;5035311;28;20053;-73
2024/03/29 00:08:33;;;;;;;22.88;11.88;;;;;;;;;;5034216;28;20029;-72
2024/03/29 00:10:58;;;;;;;19.33;11.50;;;;;;;;;;5034835;28;20163;-72
2024/03/29 00:13:23;;;;;;;20.42;10.65;;;;;;;;;;5035956;28;20306;-75
2024/03/29 00:15:49;;;;;;;22.17;11.52;;;;;;;;;;5035224;28;20405;-74
2024/03/29 00:18:14;;;;;;;20.27;10.85;;;;;;;;;;5034169;28;20126;-75
2024/03/29 00:20:39;;;;;;;23.25;11.20;;;;;;;;;;5017605;28;20531;-74
2024/03/29 00:23:05;;;;;;;23.27;11.15;;;;;;;;;;5035056;28;20025;-74
2024/03/29 00:25:30;;;;;;;23.83;11.77;;;;;;;;;;5034628;28;20452;-74
2024/03/29 00:27:56;;;;;;;20.63;11.05;;;;;;;;;;5035183;28;20459;-75
2024/03/29 00:30:21;;;;;;;25.50;12.82;;;;;;;;;;5035102;28;20063;-73
2024/03/29 00:32:46;;;;;;;25.45;12.63;;;;;;;;;;5034558;28;20034;-74
2024/03/29 00:35:14;;;;;;;22.45;11.77;;;;;;;;;;5035841;28;20104;-74
2024/03/29 00:37:39;;;;;;;26.02;12.35;;;;;;;;;;5034107;28;20360;-73
2024/03/29 00:40:05;;;;;;;22.05;12.10;;;;;;;;;;5033754;28;20029;-74
2024/03/29 00:42:30;;;;;;;23.40;12.27;;;;;;;;;;5048135;28;20081;-71
2024/03/29 00:44:55;;;;;;;19.95;11.88;;;;;;;;;;5041129;28;20068;-74
2024/03/29 00:47:21;;;;;;;21.70;12.25;;;;;;;;;;5034136;28;20029;-74
2024/03/29 00:49:46;;;;;;;20.85;12.25;;;;;;;;;;5033745;28;20022;-73
2024/03/29 00:52:12;;;;;;;22.88;12.60;;;;;;;;;;5034733;28;20104;-73
2024/03/29 00:54:37;;;;;;;24.13;13.35;;;;;;;;;;5034729;28;20423;-74
2024/03/29 00:57:03;;;;;;;23.77;11.82;;;;;;;;;;5016694;28;20094;-73
2024/03/29 00:59:28;;;;;;;24.05;12.13;;;;;;;;;;5034576;28;20112;-65
2024/03/29 01:01:53;;;;;;;19.65;11.82;;;;;;;;;;5034962;28;20163;-73
2024/03/29 01:04:19;;;;;;;25.10;12.32;;;;;;;;;;5034445;28;20029;-74
2024/03/29 01:06:44;;;;;;;22.98;11.60;;;;;;;;;;5016440;28;20507;-72
2024/03/29 01:09:13;;;;;;;21.67;12.82;;;;;;;;;;5034137;28;20036;-72
2024/03/29 01:11:38;;;;;;;22.90;12.30;;;;;;;;;;5033473;28;20347;-73
2024/03/29 01:14:04;;;;;;;24.50;12.68;;;;;;;;;;5035340;28;20021;-73
2024/03/29 01:16:30;;;;;;;24.67;13.27;;;;;;;;;;5035131;28;20498;-66
2024/03/29 01:18:57;;;;;;;23.88;12.90;;;;;;;;;;5035301;28;20033;-73
2024/03/29 01:21:23;;;;;;;21.80;12.43;;;;;;;;;;5034855;28;20068;-73
2024/03/29 01:23:49;;;;;;;24.75;13.55;;;;;;;;;;5034466;28;20440;-73
2024/03/29 01:26:17;;;;;;;25.83;13.82;;;;;;;;;;5033875;28;20040;-69
2024/03/29 01:28:42;;;;;;;24.05;12.90;;;;;;;;;;5033545;28;20033;-69
2024/03/29 01:31:07;;;;;;;22.95;13.13;;;;;;;;;;5033875;28;20052;-69
2024/03/29 01:33:36;;;;;;;25.83;13.60;;;;;;;;;;5033915;28;20021;-68
2024/03/29 01:36:02;;;;;;;25.90;12.90;;;;;;;;;;5032115;28;20021;-69
2024/03/29 01:38:27;;;;;;;26.95;14.35;;;;;;;;;;5030620;28;20044;-75
2024/03/29 01:40:52;;;;;;;26.65;13.48;;;;;;;;;;5033797;28;20428;-74
2024/03/29 01:43:18;;;;;;;25.40;13.07;;;;;;;;;;5033916;28;20101;-68
2024/03/29 01:45:46;;;;;;;29.85;14.85;;;;;;;;;;5033262;28;20037;-69
2024/03/29 01:48:11;;;;;;;28.30;13.85;;;;;;;;;;5032428;28;20455;-70
2024/03/29 01:50:37;;;;;;;26.15;13.82;;;;;;;;;;5033289;28;20057;-74
2024/03/29 01:53:03;;;;;;;23.25;13.77;;;;;;;;;;5032892;28;20021;-73
2024/03/29 01:55:29;;;;;;;26.50;14.60;;;;;;;;;;5033356;28;20081;-75
2024/03/29 01:57:55;;;;;;;28.48;14.13;;;;;;;;;;5065346;28;20067;-74
2024/03/29 02:00:21;;;;;;;24.27;12.90;;;;;;;;;;5033442;28;20051;-74
2024/03/29 02:02:46;;;;;;;28.15;13.90;;;;;;;;;;5032298;28;20036;-73
2024/03/29 02:05:12;;;;;;;26.00;14.23;;;;;;;;;;5031839;28;20041;-72
2024/03/29 02:07:38;;;;;;;24.83;14.50;;;;;;;;;;5033322;28;20040;-72
2024/03/29 02:10:04;;;;;;;28.42;15.48;;;;;;;;;;5033144;28;20025;-72
2024/03/29 02:12:31;;;;;;;25.77;14.88;;;;;;;;;;5032879;28;20033;-74
2024/03/29 02:14:58;;;;;;;24.88;13.95;;;;;;;;;;5032494;28;20033;-72
2024/03/29 02:17:23;;;;;;;25.35;13.98;;;;;;;;;;5015738;28;20021;-71
2024/03/29 02:19:49;;;;;;;26.30;14.38;;;;;;;;;;5032718;28;20017;-73
2024/03/29 02:22:15;;;;;;;27.60;14.68;;;;;;;;;;5032715;28;20021;-70
2024/03/29 02:24:41;;;;;;;26.48;14.48;;;;;;;;;;5032708;28;20029;-73
2024/03/29 02:27:06;;;;;;;34.13;15.43;;;;;;;;;;5064951;28;20041;-73
2024/03/29 02:29:31;;;;;;;27.02;14.32;;;;;;;;;;5033078;28;20021;-72
2024/03/29 02:31:57;;;;;;;27.23;14.90;;;;;;;;;;5033030;28;20352;-70
2024/03/29 02:34:23;;;;;;;29.83;15.00;;;;;;;;;;5032497;28;20206;-71
2024/03/29 02:36:48;;;;;;;26.80;15.32;;;;;;;;;;5032535;28;20034;-73
2024/03/29 02:39:14;;;;;;;26.90;14.85;;;;;;;;;;5032793;28;20433;-74
2024/03/29 02:41:39;;;;;;;28.42;15.70;;;;;;;;;;5032671;28;20029;-74
2024/03/29 02:44:04;;;;;;;27.23;15.45;;;;;;;;;;5032250;28;20052;-64
2024/03/29 02:46:30;;;;;;;28.30;14.68;;;;;;;;;;5032721;28;20041;-73
2024/03/29 02:48:55;;;;;;;25.58;14.75;;;;;;;;;;5032482;28;20021;-73
2024/03/29 02:51:20;;;;;;;26.65;13.57;;;;;;;;;;5031340;28;20025;-72
2024/03/29 02:53:46;;;;;;;30.10;15.25;;;;;;;;;;5032479;28;20139;-73
2024/03/29 02:56:13;;;;;;;27.67;15.10;;;;;;;;;;5032299;28;20380;-73
2024/03/29 02:58:38;;;;;;;27.02;15.15;;;;;;;;;;5032862;28;20108;-74
2024/03/29 03:01:09;;;;;;;27.85;15.13;;;;;;;;;;5032647;28;20468;-74
2024/03/29 03:03:35;;;;;;;36.58;15.95;;;;;;;;;;5030998;28;20318;-66
2024/03/29 03:06:01;;;;;;;28.83;14.75;;;;;;;;;;5031373;28;20052;-74
2024/03/29 03:11:10;;;;;;;26.10;14.82;;;;;;;;;;5032221;28;20026;-74
2024/03/29 03:13:35;;;;;;;26.90;14.20;;;;;;;;;;5032062;28;20484;-69
2024/03/29 03:16:01;;;;;;;33.20;15.98;;;;;;;;;;5031342;28;20030;-73
2024/03/29 03:18:26;;;;;;;30.73;14.80;;;;;;;;;;5031698;28;20052;-73
2024/03/29 03:20:55;;;;;;;29.17;15.13;;;;;;;;;;5032394;28;20021;-73
2024/03/29 03:23:21;;;;;;;24.63;14.65;;;;;;;;;;5031973;28;20036;-71
2024/03/29 03:25:55;;;;;;;29.23;14.95;;;;;;;;;;5064373;28;20037;-70
2024/03/29 03:28:21;;;;;;;24.02;14.13;;;;;;;;;;5031037;28;20033;-74
2024/03/29 03:30:47;;;;;;;28.92;15.20;;;;;;;;;;5032121;28;20033;-75
2024/03/29 03:33:13;;;;;;;29.63;14.82;;;;;;;;;;5031981;28;20033;-72
2024/03/29 03:35:39;;;;;;;24.00;15.00;;;;;;;;;;5031172;28;20022;-73
2024/03/29 03:38:04;;;;;;;25.83;14.18;;;;;;;;;;5031542;28;20459;-74
2024/03/29 03:40:29;;;;;;;32.20;14.52;;;;;;;;;;5032001;28;20057;-75
2024/03/29 03:42:55;;;;;;;26.02;13.65;;;;;;;;;;5031906;28;20025;-74
2024/03/29 03:45:20;;;;;;;27.88;16.02;;;;;;;;;;5031893;28;20429;-74
2024/03/29 03:47:45;;;;;;;24.80;14.90;;;;;;;;;;5031510;28;20021;-74
2024/03/29 03:50:11;;;;;;;27.88;14.70;;;;;;;;;;5031920;28;20508;-74
2024/03/29 03:52:36;;;;;;;24.50;12.88;;;;;;;;;;5032045;28;20329;-75
2024/03/29 03:55:02;;;;;;;23.40;14.02;;;;;;;;;;5031533;28;20075;-74
2024/03/29 03:57:29;;;;;;;27.52;14.98;;;;;;;;;;5031893;28;20039;-74
2024/03/29 03:59:54;;;;;;;29.17;14.82;;;;;;;;;;5030631;28;20434;-74
2024/03/29 04:02:20;;;;;;;29.48;13.90;;;;;;;;;;5030414;28;20504;-74
2024/03/29 04:04:48;;;;;;;25.88;14.27;;;;;;;;;;5031666;28;20021;-73
2024/03/29 04:07:14;;;;;;;25.13;14.27;;;;;;;;;;5031573;28;20510;-74
2024/03/29 04:09:39;;;;;;;26.05;13.75;;;;;;;;;;5031753;28;20017;-67
2024/03/29 04:12:05;;;;;;;31.95;13.98;;;;;;;;;;5032269;28;20086;-73
2024/03/29 04:14:30;;;;;;;27.77;14.38;;;;;;;;;;5033731;28;20055;-73
2024/03/29 04:16:55;;;;;;;24.60;13.63;;;;;;;;;;5035394;28;20025;-73
2024/03/29 04:19:21;;;;;;;23.52;13.52;;;;;;;;;;5035500;28;20122;-75
2024/03/29 04:21:46;;;;;;;29.10;14.35;;;;;;;;;;5035288;28;20018;-75
2024/03/29 04:24:11;;;;;;;24.42;13.38;;;;;;;;;;5035501;28;20025;-72
2024/03/29 04:26:38;;;;;;;26.08;12.93;;;;;;;;;;5035638;28;20045;-73
2024/03/29 04:29:03;;;;;;;24.13;12.85;;;;;;;;;;5034466;28;20009;-73
2024/03/29 04:31:29;;;;;;;26.55;13.10;;;;;;;;;;5035028;28;20136;-73
2024/03/29 04:33:54;;;;;;;23.25;14.20;;;;;;;;;;5035154;28;20059;-73
2024/03/29 04:36:20;;;;;;;24.15;15.38;;;;;;;;;;5035208;28;20341;-72
2024/03/29 04:38:45;;;;;;;22.00;16.17;;;;;;;;;;5033697;28;20037;-72
2024/03/29 04:41:11;;;;;;;20.33;11.88;;;;;;;;;;5034716;28;20095;-65
2024/03/29 04:43:36;;;;;;;19.23;11.32;;;;;;;;;;5035274;28;20147;-73
2024/03/29 04:46:11;;;;;;;21.95;11.38;;;;;;;;;;5033839;28;20090;-73
2024/03/29 04:48:41;;;;;;;20.73;11.48;;;;;;;;;;5034092;28;20116;-71
2024/03/29 04:51:07;;;;;;;22.70;11.27;;;;;;;;;;5033773;28;20054;-74
2024/03/29 04:53:32;;;;;;;19.45;10.90;;;;;;;;;;5033561;28;20087;-73
2024/03/29 04:55:58;;;;;;;23.15;11.10;;;;;;;;;;5033633;28;20040;-71
2024/03/29 04:58:24;;;;;;;22.90;11.07;;;;;;;;;;5034292;28;20147;-74
2024/03/29 05:03:35;;;;;;;22.13;10.38;;;;;;;;;;5034820;28;20083;-75
2024/03/29 05:06:00;;;;;;;17.13;10.82;;;;;;;;;;5034364;28;20062;-67
2024/03/29 05:08:26;;;;;;;21.95;10.68;;;;;;;;;;5032394;28;20456;-69
2024/03/29 05:10:51;;;;;;;20.55;11.13;;;;;;;;;;5034199;28;20025;-71
2024/03/29 05:13:20;;;;;;;23.83;10.93;;;;;;;;;;5034406;28;20033;-69
2024/03/29 05:15:47;;;;;;;19.90;10.60;;;;;;;;;;5034233;28;20025;-73
2024/03/29 05:18:12;;;;;;;20.35;10.52;;;;;;;;;;5034399;28;20022;-70
2024/03/29 05:20:40;;;;;;;23.75;10.93;;;;;;;;;;5033552;28;20021;-70
2024/03/29 05:23:06;;;;;;;24.05;10.75;;;;;;;;;;5032922;28;20021;-70
2024/03/29 05:25:31;;;;;;;19.67;10.88;;;;;;;;;;5032515;28;20036;-68
2024/03/29 05:27:56;;;;;;;21.00;10.10;;;;;;;;;;5032612;28;20033;-70
2024/03/29 05:30:23;;;;;;;20.63;11.13;;;;;;;;;;5033758;28;20032;-68
2024/03/29 05:32:49;;;;;;;20.33;11.73;;;;;;;;;;5032906;28;20024;-68
2024/03/29 05:35:14;;;;;;;22.02;10.88;;;;;;;;;;5033371;28;20025;-64
2024/03/29 05:37:40;;;;;;;23.60;10.95;;;;;;;;;;5033860;28;20018;-71
2024/03/29 05:40:07;;;;;;;26.27;10.50;;;;;;;;;;5033506;28;20045;-70
2024/03/29 05:42:34;;;;;;;22.58;10.30;;;;;;;;;;5033388;28;20017;-75
2024/03/29 05:44:59;;;;;;;21.00;10.27;;;;;;;;;;5033363;28;20018;-68
2024/03/29 05:47:25;;;;;;;21.58;10.35;;;;;;;;;;5031967;28;20034;-68
2024/03/29 05:49:50;;;;;;;21.42;10.90;;;;;;;;;;5033088;28;20407;-69
2024/03/29 05:52:16;;;;;;;28.10;10.75;;;;;;;;;;5033619;28;20459;-67
2024/03/29 05:54:42;;;;;;;22.48;9.63;;;;;;;;;;5033347;28;20056;-69
2024/03/29 05:57:08;;;;;;;32.63;11.05;;;;;;;;;;5033378;28;20426;-68
2024/03/29 05:59:34;;;;;;;22.52;10.55;;;;;;;;;;5033293;28;20108;-68
2024/03/29 06:01:59;;;;;;;20.75;9.52;;;;;;;;;;5032615;28;20359;-69
2024/03/29 06:04:32;;;;;;;19.65;9.45;;;;;;;;;;5033439;28;20037;-67
2024/03/29 06:06:58;;;;;;;20.27;9.48;;;;;;;;;;5033063;28;20038;-69
2024/03/29 06:09:24;;;;;;;21.20;9.57;;;;;;;;;;5032964;28;20030;-68
2024/03/29 06:11:49;;;;;;;28.75;9.40;;;;;;;;;;5032706;28;20032;-70
2024/03/29 06:19:42;;;;;;;23.17;8.93;;;;;;;;;;5033092;28;20099;-65
2024/03/29 06:22:09;;;;;;;21.23;8.77;;;;;;;;;;5033084;28;20083;-68
2024/03/29 06:24:34;;;;;;;21.88;9.15;;;;;;;;;;5032517;28;20026;-65
2024/03/29 06:27:00;;;;;;;25.33;10.13;;;;;;;;;;5032370;28;20041;-68
2024/03/29 06:29:25;;;;;;;19.42;8.93;;;;;;;;;;5032937;28;20352;-69
2024/03/29 06:31:51;;;;;;;24.15;9.07;;;;;;;;;;5033000;28;20053;-66
2024/03/29 06:34:16;;;;;;;19.60;8.88;;;;;;;;;;5031796;28;20112;-68
2024/03/29 06:36:42;;;;;;;19.70;8.77;;;;;;;;;;5031987;28;20045;-69
2024/03/29 06:39:08;;;;;;;18.05;8.48;;;;;;;;;;5032547;28;20170;-68
2024/03/29 06:41:33;;;;;;;23.40;9.40;;;;;;;;;;5032636;28;20025;-67
2024/03/29 06:43:59;;;;;;;18.52;9.18;;;;;;;;;;5032515;28;20037;-70
2024/03/29 06:46:24;;;;;;;21.48;8.52;;;;;;;;;;5032456;28;20038;-66
2024/03/29 06:48:49;;;;;;;18.38;9.32;;;;;;;;;;5032854;28;20032;-66
2024/03/29 06:51:15;;;;;;;25.88;9.00;;;;;;;;;;5032626;28;20036;-63
2024/03/29 06:53:40;;;;;;;17.80;9.60;;;;;;;;;;5030876;28;20053;-76
2024/03/29 06:56:06;;;;;;;21.55;9.60;;;;;;;;;;5027638;28;20060;-69
2024/03/29 06:58:33;;;;;;;25.98;9.43;;;;;;;;;;5028958;28;20042;-66
2024/03/29 07:00:58;;;;;;;20.80;9.10;;;;;;;;;;5030199;28;20102;-66
2024/03/29 07:03:24;;;;;;;20.80;8.77;;;;;;;;;;5030986;28;20048;-67
2024/03/29 07:05:49;;;;;;;24.17;9.50;;;;;;;;;;5031371;28;20029;-68
2024/03/29 07:08:15;;;;;;;23.70;9.20;;;;;;;;;;5031611;28;20095;-67
2024/03/29 07:10:41;;;;;;;25.25;8.80;;;;;;;;;;5031425;28;20356;-68
2024/03/29 07:13:06;;;;;;;31.27;9.20;;;;;;;;;;5031102;28;20076;-65
2024/03/29 07:15:32;;;;;;;17.15;9.18;;;;;;;;;;5031033;28;20031;-67
2024/03/29 07:17:58;;;;;;;12.63;8.40;;;;;;;;;;5029337;28;20032;-64
2024/03/29 07:20:25;;;;;;;28.20;9.52;;;;;;;;;;5031399;28;20368;-72
2024/03/29 07:22:50;;;;;;;27.25;9.90;;;;;;;;;;5030882;28;20029;-71
2024/03/29 07:25:16;;;;;;;22.10;8.35;;;;;;;;;;5031234;28;20459;-71
2024/03/29 07:27:41;;;;;;;22.83;8.88;;;;;;;;;;5031597;28;20080;-74
2024/03/29 07:30:08;;;;;;;21.20;8.70;;;;;;;;;;5031481;28;20353;-67
2024/03/29 07:32:33;;;;;;;17.73;8.75;;;;;;;;;;5031692;28;20018;-70
2024/03/29 07:34:59;;;;;;;21.67;8.85;;;;;;;;;;5031368;28;20025;-67
2024/03/29 07:37:25;;;;;;;19.02;9.65;;;;;;;;;;5031363;28;20036;-67
2024/03/29 07:39:51;;;;;;;21.70;9.75;;;;;;;;;;5029992;28;20021;-69
2024/03/29 07:42:16;;;;;;;30.05;9.10;;;;;;;;;;5029922;28;20444;-67
2024/03/29 07:44:42;;;;;;;19.25;9.10;;;;;;;;;;5028698;28;20052;-67
2024/03/29 07:47:07;;;;;;;25.38;10.15;;;;;;;;;;5029660;28;20056;-67
2024/03/29 07:49:33;;;;;;;23.45;9.70;;;;;;;;;;5030930;28;20025;-67
2024/03/29 07:51:59;;;;;;;21.60;9.38;;;;;;;;;;5033629;28;20026;-67
2024/03/29 07:54:25;;;;;;;23.40;9.68;;;;;;;;;;5033387;28;20045;-65
2024/03/29 07:56:50;;;;;;;25.33;9.95;;;;;;;;;;5031645;28;20067;-68
2024/03/29 07:59:19;;;;;;;30.13;9.38;;;;;;;;;;5033412;28;20163;-73
2024/03/29 08:01:44;;;;;;;20.75;9.80;;;;;;;;;;5034207;28;20100;-67
2024/03/29 08:04:10;;;;;;;19.77;10.05;;;;;;;;;;5033527;28;20163;-68
2024/03/29 08:06:35;;;;;;;23.42;9.70;;;;;;;;;;5033628;28;20042;-67
2024/03/29 08:09:00;;;;;;;25.40;9.52;;;;;;;;;;5033956;28;20025;-67
2024/03/29 08:11:26;;;;;;;18.17;9.98;;;;;;;;;;5032927;28;20037;-68
2024/03/29 08:13:51;;;;;;;23.00;9.93;;;;;;;;;;5032730;28;20124;-58
2024/03/29 08:16:17;;;;;;;17.77;9.50;;;;;;;;;;5034444;28;20444;-67
2024/03/29 08:18:45;;;;;;;22.40;9.95;;;;;;;;;;5033724;28;20101;-66
2024/03/29 08:21:11;;;;;;;25.38;10.50;;;;;;;;;;5032511;28;20055;-64
2024/03/29 08:23:41;;;;;;;19.23;8.73;;;;;;;;;;5033088;28;20087;-68
2024/03/29 08:26:06;;;;;;;21.02;9.82;;;;;;;;;;5032867;28;20041;-63
2024/03/29 08:28:31;;;;;;;28.80;10.23;;;;;;;;;;5033644;28;20017;-66
2024/03/29 08:31:00;;;;;;;21.70;9.73;;;;;;;;;;5033986;28;20029;-64
2024/03/29 08:33:26;;;;;;;18.52;9.88;;;;;;;;;;5031964;28;20025;-66
2024/03/29 08:35:52;;;;;;;20.67;9.63;;;;;;;;;;5033379;28;20044;-67
2024/03/29 08:38:17;;;;;;;17.15;9.15;;;;;;;;;;5029976;28;20104;-63
2024/03/29 08:40:46;;;;;;;25.33;10.43;;;;;;;;;;5032001;28;20021;-64
2024/03/29 08:43:11;;;;;;;26.83;9.80;;;;;;;;;;5032693;28;20452;-62
2024/03/29 08:45:40;;;;;;;21.50;9.90;;;;;;;;;;5031212;28;20029;-66
2024/03/29 08:48:08;;;;;;;22.23;10.75;;;;;;;;;;5030176;28;20467;-66
2024/03/29 08:50:35;;;;;;;25.95;11.25;;;;;;;;;;5031401;28;20030;-66
2024/03/29 08:53:01;;;;;;;17.40;9.88;;;;;;;;;;5031734;28;20361;-66
2024/03/29 08:55:26;;;;;;;19.48;10.32;;;;;;;;;;5032445;28;20107;-67
2024/03/29 08:57:52;;;;;;;18.58;9.02;;;;;;;;;;5031729;28;20032;-65
2024/03/29 09:00:17;;;;;;;21.27;10.30;;;;;;;;;;5033138;28;20022;-69
2024/03/29 09:02:43;;;;;;;22.35;9.95;;;;;;;;;;5033889;28;20017;-71
2024/03/29 09:05:08;;;;;;;25.60;10.93;;;;;;;;;;5034257;28;20033;-66
2024/03/29 09:07:33;;;;;;;30.42;11.35;;;;;;;;;;5034084;28;20436;-67
2024/03/29 09:09:59;;;;;;;21.70;10.40;;;;;;;;;;5033316;28;20048;-68
2024/03/29 09:12:24;;;;;;;20.15;9.88;;;;;;;;;;5032015;28;20045;-66
2024/03/29 09:14:50;;;;;;;21.75;10.55;;;;;;;;;;5033678;28;20325;-63
2024/03/29 09:17:16;;;;;;;19.10;10.88;;;;;;;;;;5033616;28;20037;-66
2024/03/29 09:19:41;;;;;;;21.02;10.38;;;;;;;;;;5033030;28;20026;-66
2024/03/29 09:22:06;;;;;;;20.38;10.98;;;;;;;;;;5033278;28;20417;-66
2024/03/29 09:24:34;;;;;;;18.63;9.93;;;;;;;;;;5033127;28;20112;-66
2024/03/29 09:27:00;;;;;;;20.17;11.05;;;;;;;;;;5032091;28;20049;-67
2024/03/29 09:29:25;;;;;;;24.45;11.20;;;;;;;;;;5032707;28;20025;-64
2024/03/29 09:31:51;;;;;;;19.73;10.77;;;;;;;;;;5032234;28;20117;-63
2024/03/29 09:34:16;;;;;;;17.30;10.65;;;;;;;;;;5033430;28;20018;-66
2024/03/29 09:36:41;;;;;;;15.38;10.38;;;;;;;;;;5031232;28;20029;-68
2024/03/29 09:39:08;;;;;;;23.90;11.60;;;;;;;;;;5031987;28;20026;-65
2024/03/29 09:41:37;;;;;;;18.75;11.27;;;;;;;;;;5032033;28;20060;-65
2024/03/29 09:44:03;;;;;;;19.83;10.98;;;;;;;;;;5032551;28;20018;-67
2024/03/29 09:46:29;;;;;;;24.70;11.38;;;;;;;;;;5031933;28;20046;-63
2024/03/29 09:48:55;;;;;;;19.92;11.25;;;;;;;;;;5031863;28;20091;-65
2024/03/29 09:51:21;;;;;;;20.05;11.18;;;;;;;;;;5033236;28;20018;-55
2024/03/29 09:53:47;;;;;;;20.58;11.50;;;;;;;;;;5032931;28;20480;-64
2024/03/29 09:56:12;;;;;;;17.23;10.80;;;;;;;;;;5033045;28;20045;-62
2024/03/29 09:58:38;;;;;;;25.05;11.00;;;;;;;;;;5031883;28;20071;-64
2024/03/29 10:01:04;;;;;;;18.77;10.65;;;;;;;;;;5031904;28;20033;-63
2024/03/29 10:03:31;;;;;;;19.70;11.40;;;;;;;;;;5033294;28;20037;-65
2024/03/29 10:05:57;;;;;;;19.02;11.10;;;;;;;;;;5032727;28;20021;-68
2024/03/29 10:08:23;;;;;;;16.80;10.88;;;;;;;;;;5033041;28;20048;-68
2024/03/29 10:10:49;;;;;;;19.95;11.85;;;;;;;;;;5032823;28;20392;-70
2024/03/29 10:13:14;;;;;;;21.60;11.63;;;;;;;;;;5030603;28;20032;-68
2024/03/29 10:15:45;;;;;;;21.60;11.90;;;;;;;;;;5032766;28;20873;-69
2024/03/29 10:18:11;;;;;;;20.02;11.98;;;;;;;;;;5032689;28;20017;-70
2024/03/29 10:20:36;;;;;;;19.92;11.23;;;;;;;;;;5032991;28;20036;-69
2024/03/29 10:23:03;;;;;;;18.83;11.23;;;;;;;;;;5031073;28;20021;-69
2024/03/29 10:25:31;;;;;;;27.13;12.43;;;;;;;;;;5031612;28;20069;-70
2024/03/29 10:27:56;;;;;;;21.02;11.82;;;;;;;;;;5032766;28;20047;-70
2024/03/29 10:30:24;;;;;;;18.98;11.98;;;;;;;;;;5032919;28;20392;-62
2024/03/29 10:32:50;;;;;;;23.73;11.90;;;;;;;;;;5032947;28;20456;-69
2024/03/29 10:35:15;;;;;;;24.23;11.85;;;;;;;;;;5032526;28;20022;-69
2024/03/29 10:37:43;;;;;;;24.00;12.48;;;;;;;;;;5031080;28;20367;-67
2024/03/29 10:40:09;;;;;;;20.65;12.48;;;;;;;;;;5031926;28;20100;-69
2024/03/29 10:42:40;;;;;;;22.25;12.52;;;;;;;;;;5031478;28;20033;-66
2024/03/29 10:45:08;;;;;;;22.98;12.48;;;;;;;;;;5031621;28;20309;-70
2024/03/29 10:47:34;;;;;;;21.67;13.30;;;;;;;;;;5031771;28;20363;-70
2024/03/29 10:49:59;;;;;;;22.17;13.32;;;;;;;;;;5032116;28;20093;-69
2024/03/29 10:52:25;;;;;;;23.38;12.95;;;;;;;;;;5031216;28;20095;-66
2024/03/29 10:54:51;;;;;;;18.98;12.45;;;;;;;;;;5031036;28;20111;-64
2024/03/29 10:57:23;;;;;;;24.70;12.32;;;;;;;;;;5030605;28;20033;-68
2024/03/29 11:00:11;;;;;;;22.52;12.45;;;;;;;;;;5032817;28;20539;-69
2024/03/29 11:02:47;;;;;;;23.95;12.75;;;;;;;;;;5031543;28;20017;-69
2024/03/29 11:05:14;;;;;;;22.55;13.50;;;;;;;;;;5031637;28;20714;-67
2024/03/29 11:07:43;;;;;;;29.10;13.48;;;;;;;;;;5031952;28;20029;-69
2024/03/29 11:10:32;;;;;;;20.83;12.75;;;;;;;;;;5032674;28;20075;-67
2024/03/29 11:13:00;;;;;;;24.13;13.05;;;;;;;;;;5021968;28;20045;-71
2024/03/29 11:15:28;;;;;;;24.10;13.68;;;;;;;;;;5031593;28;20063;-70
2024/03/29 11:17:55;;;;;;;20.83;13.02;;;;;;;;;;5032212;28;20036;-70
2024/03/29 11:20:24;;;;;;;25.35;13.23;;;;;;;;;;5032017;28;20025;-69
2024/03/29 11:22:50;;;;;;;24.10;13.27;;;;;;;;;;5031798;28;20096;-68
2024/03/29 11:25:15;;;;;;;24.00;14.45;;;;;;;;;;5035089;28;20021;-69
2024/03/29 11:27:41;;;;;;;25.80;13.50;;;;;;;;;;5034313;28;20052;-67
2024/03/29 11:30:06;;;;;;;26.92;13.30;;;;;;;;;;5035244;28;20021;-68
2024/03/29 11:32:37;;;;;;;24.52;13.13;;;;;;;;;;5036000;28;20452;-69
2024/03/29 11:35:03;;;;;;;25.38;14.15;;;;;;;;;;5035016;28;20026;-69
2024/03/29 11:37:32;;;;;;;26.25;14.85;;;;;;;;;;5034963;28;20041;-68
2024/03/29 11:40:01;;;;;;;26.45;14.05;;;;;;;;;;5035645;28;20014;-65
2024/03/29 11:42:57;;;;;;;26.38;12.75;;;;;;;;;;5034828;28;20509;-63
2024/03/29 11:45:27;;;;;;;25.08;14.40;;;;;;;;;;5022654;28;20029;-63
2024/03/29 11:47:55;;;;;;;28.15;14.88;;;;;;;;;;5035230;28;20064;-64
2024/03/29 11:50:20;;;;;;;29.92;15.70;;;;;;;;;;5035500;28;20053;-64
2024/03/29 11:52:46;;;;;;;23.42;14.52;;;;;;;;;;5033232;28;20053;-63
2024/03/29 11:55:11;;;;;;;26.67;15.73;;;;;;;;;;5033470;28;20053;-64
2024/03/29 11:57:40;;;;;;;25.38;15.07;;;;;;;;;;5032405;28;20083;-62
2024/03/29 12:00:06;;;;;;;23.67;15.13;;;;;;;;;;5033712;28;20028;-61
2024/03/29 12:02:32;;;;;;;30.00;15.60;;;;;;;;;;5033336;28;20040;-64
2024/03/29 12:04:57;;;;;;;32.15;15.40;;;;;;;;;;5034962;28;20356;-66
2024/03/29 12:07:23;;;;;;;38.60;15.85;;;;;;;;;;5035313;28;20148;-62
2024/03/29 12:09:48;;;;;;;37.42;16.45;;;;;;;;;;5032693;28;20025;-64
2024/03/29 12:12:17;;;;;;;27.45;14.82;;;;;;;;;;5033658;28;20163;-60
2024/03/29 12:14:43;;;;;;;27.83;15.05;;;;;;;;;;5034062;28;20014;-68
2024/03/29 12:17:10;;;;;;;29.85;14.88;;;;;;;;;;5034939;28;20034;-69
2024/03/29 12:19:38;;;;;;;29.33;15.68;;;;;;;;;;5034637;28;20018;-70
2024/03/29 12:22:04;;;;;;;30.52;15.45;;;;;;;;;;5033533;28;20385;-69
2024/03/29 12:24:29;;;;;;;32.30;16.65;;;;;;;;;;5033874;28;20099;-69
2024/03/29 12:26:55;;;;;;;26.50;16.58;;;;;;;;;;5036457;28;20071;-70
2024/03/29 12:29:20;;;;;;;27.95;15.63;;;;;;;;;;5037402;28;20026;-65
2024/03/29 12:31:55;;;;;;;31.70;16.15;;;;;;;;;;5034470;28;20039;-69
2024/03/29 12:34:22;;;;;;;28.02;16.95;;;;;;;;;;5034028;28;20017;-69
2024/03/29 12:36:47;;;;;;;27.13;16.10;;;;;;;;;;5034291;28;20029;-71
2024/03/29 12:39:13;;;;;;;31.75;16.60;;;;;;;;;;5034013;28;20029;-70
2024/03/29 12:41:38;;;;;;;24.83;15.93;;;;;;;;;;5034074;28;20099;-70
2024/03/29 12:44:03;;;;;;;28.95;16.35;;;;;;;;;;5033268;28;20022;-72
2024/03/29 12:46:29;;;;;;;31.42;16.42;;;;;;;;;;5033341;28;20068;-72
2024/03/29 12:48:59;;;;;;;31.80;17.50;;;;;;;;;;5033275;28;20067;-69
2024/03/29 12:51:25;;;;;;;28.88;16.58;;;;;;;;;;5032959;28;20064;-68
2024/03/29 12:53:50;;;;;;;28.25;16.30;;;;;;;;;;5034195;28;20053;-66
2024/03/29 12:56:16;;;;;;;30.15;16.50;;;;;;;;;;5034211;28;20036;-71
2024/03/29 12:58:41;;;;;;;29.50;16.08;;;;;;;;;;5033723;28;20033;-70
2024/03/29 13:01:07;;;;;;;35.85;17.58;;;;;;;;;;5032932;28;20021;-70
2024/03/29 13:03:32;;;;;;;30.13;17.27;;;;;;;;;;5034004;28;20024;-69
2024/03/29 13:05:58;;;;;;;30.63;17.23;;;;;;;;;;5032901;28;20398;-69
2024/03/29 13:08:23;;;;;;;39.88;18.23;;;;;;;;;;5032497;28;20505;-70
2024/03/29 13:10:48;;;;;;;30.45;18.13;;;;;;;;;;5033812;28;20048;-70
2024/03/29 13:13:14;;;;;;;30.75;17.23;;;;;;;;;;5033712;28;20416;-69
2024/03/29 13:15:42;;;;;;;25.88;16.58;;;;;;;;;;5033680;28;20084;-70
2024/03/29 13:18:08;;;;;;;35.97;16.88;;;;;;;;;;5032959;28;20032;-67
2024/03/29 13:20:40;;;;;;;29.60;17.45;;;;;;;;;;5048786;28;20021;-71
2024/03/29 13:23:06;;;;;;;35.53;17.25;;;;;;;;;;5032475;28;20084;-68
2024/03/29 13:25:32;;;;;;;39.80;17.50;;;;;;;;;;5030154;28;20620;-69
2024/03/29 13:27:57;;;;;;;34.97;17.52;;;;;;;;;;5033995;28;20087;-66
2024/03/29 13:30:25;;;;;;;34.78;17.02;;;;;;;;;;5032282;28;20182;-65
2024/03/29 13:32:51;;;;;;;31.98;17.60;;;;;;;;;;5033702;28;20025;-68
2024/03/29 13:35:18;;;;;;;30.65;17.60;;;;;;;;;;5033967;28;20013;-67
2024/03/29 13:37:47;;;;;;;29.70;17.17;;;;;;;;;;5032557;28;20061;-63
2024/03/29 13:40:13;;;;;;;29.65;16.30;;;;;;;;;;5032711;28;20025;-67
2024/03/29 13:42:39;;;;;;;37.88;17.80;;;;;;;;;;5031922;28;20036;-65
2024/03/29 13:45:05;;;;;;;30.95;16.77;;;;;;;;;;5033388;28;20111;-66
2024/03/29 13:47:34;;;;;;;29.60;16.92;;;;;;;;;;5033465;28;20395;-65
2024/03/29 13:50:00;;;;;;;36.78;16.67;;;;;;;;;;5032757;28;20021;-66
2024/03/29 13:52:27;;;;;;;30.13;16.85;;;;;;;;;;5033334;28;20341;-67
2024/03/29 13:54:53;;;;;;;29.88;16.67;;;;;;;;;;5033763;28;20045;-64
2024/03/29 13:57:19;;;;;;;27.73;16.38;;;;;;;;;;5033377;28;20378;-66
2024/03/29 13:59:45;;;;;;;31.83;16.48;;;;;;;;;;5033103;28;20033;-65
2024/03/29 14:02:16;;;;;;;33.60;16.80;;;;;;;;;;5033505;28;20018;-68
2024/03/29 14:04:42;;;;;;;29.95;15.52;;;;;;;;;;5032163;28;20025;-67
2024/03/29 14:07:09;;;;;;;31.60;17.10;;;;;;;;;;5032101;28;20119;-66
2024/03/29 14:09:35;;;;;;;30.17;17.48;;;;;;;;;;5032298;28;20036;-66
2024/03/29 14:12:00;;;;;;;34.33;17.27;;;;;;;;;;5033144;28;20025;-67
2024/03/29 14:14:26;;;;;;;36.90;17.00;;;;;;;;;;5033100;28;20352;-66
2024/03/29 14:16:51;;;;;;;30.88;16.98;;;;;;;;;;5032774;28;20086;-66
2024/03/29 14:19:16;;;;;;;33.25;17.33;;;;;;;;;;5033008;28;20472;-64
2024/03/29 14:21:42;;;;;;;31.77;17.25;;;;;;;;;;5033435;28;20237;-66
2024/03/29 14:24:07;;;;;;;32.25;16.48;;;;;;;;;;5032987;28;20033;-66